Time;durP1;ratioP1;P1;durP2;ratioP2;P2;SDS_P1;SDS_P2;PMS_P1;PMS_P2;Temp;Humidity;BMP_temperature;BMP_pressure;BME280_temperature;BME280_humidity;BME280_pressure;Samples;Min_cycle;Max_cycle;Signal;HPM_P1;HPM_P2
2022/11/30 00:00:26;;;;;;;4.10;2.55;;;;;;;2.13;100.00;100518.03;6153806;23;20006;-77
2022/11/30 00:02:54;;;;;;;11.05;5.90;;;;;;;2.11;100.00;100514.84;6103032;23;20010;-77
2022/11/30 00:05:21;;;;;;;1.10;1.10;;;;;;;2.11;100.00;100517.59;6183088;23;20204;-78
2022/11/30 00:07:47;;;;;;;5.15;3.63;;;;;;;2.16;100.00;100514.53;6183104;23;20032;-77
2022/11/30 00:10:12;;;;;;;3.13;2.92;;;;;;;2.13;100.00;100516.09;6182930;23;20371;-77
2022/11/30 00:12:41;;;;;;;2.42;2.33;;;;;;;2.04;100.00;100493.66;6182782;23;20009;-77
2022/11/30 00:15:12;;;;;;;2.45;2.25;;;;;;;2.09;100.00;100500.75;6182605;23;20017;-82
2022/11/30 00:17:39;;;;;;;2.70;2.50;;;;;;;2.03;100.00;100510.44;6156992;23;20013;-82
2022/11/30 00:20:05;;;;;;;8.20;3.67;;;;;;;2.04;100.00;100512.03;6156407;23;20383;-82
2022/11/30 00:22:31;;;;;;;3.50;3.20;;;;;;;1.99;100.00;100512.31;6182875;23;20017;-82
2022/11/30 00:24:59;;;;;;;11.05;2.70;;;;;;;2.01;100.00;100516.28;6182357;23;20024;-81
2022/11/30 00:27:28;;;;;;;4.95;3.47;;;;;;;2.00;100.00;100519.38;6157091;23;20009;-82
2022/11/30 00:29:53;;;;;;;3.38;3.08;;;;;;;2.02;100.00;100520.63;6155466;23;20004;-82
2022/11/30 00:32:19;;;;;;;1.90;1.80;;;;;;;2.08;100.00;100515.59;6156661;23;20040;-82
2022/11/30 00:34:44;;;;;;;5.30;3.00;;;;;;;2.13;100.00;100520.75;6183100;23;20379;-77
2022/11/30 00:37:10;;;;;;;2.92;2.70;;;;;;;2.12;100.00;100524.66;6182792;23;20010;-82
2022/11/30 00:39:35;;;;;;;2.05;1.77;;;;;;;2.09;100.00;100528.13;6156186;23;20012;-81
2022/11/30 00:42:01;;;;;;;1.35;1.25;;;;;;;2.09;100.00;100537.13;6182093;23;20079;-82
2022/11/30 00:44:26;;;;;;;2.15;1.95;;;;;;;2.09;100.00;100539.06;6184201;23;20016;-82
2022/11/30 00:46:52;;;;;;;5.15;1.75;;;;;;;2.02;100.00;100537.03;6184156;23;20005;-82
2022/11/30 00:49:17;;;;;;;8.05;5.03;;;;;;;2.06;100.00;100534.34;6157872;23;20494;-81
2022/11/30 00:51:43;;;;;;;1.55;1.45;;;;;;;2.02;100.00;100534.28;6184377;23;20013;-82
2022/11/30 00:54:08;;;;;;;6.13;2.67;;;;;;;2.05;100.00;100532.75;6184311;23;20395;-82
2022/11/30 00:56:34;;;;;;;4.35;3.95;;;;;;;2.09;100.00;100539.06;6133379;23;20039;-77
2022/11/30 00:58:59;;;;;;;2.60;2.42;;;;;;;2.14;100.00;100536.03;6183758;23;20092;-77
2022/11/30 01:01:24;;;;;;;3.95;3.42;;;;;;;2.12;100.00;100530.13;6183593;23;20020;-77
2022/11/30 01:03:50;;;;;;;2.78;2.60;;;;;;;2.07;100.00;100531.22;6157869;23;20009;-77
2022/11/30 01:06:15;;;;;;;3.22;2.92;;;;;;;2.07;100.00;100524.97;6183912;23;20059;-77
2022/11/30 01:08:42;;;;;;;1.48;1.38;;;;;;;2.03;100.00;100524.13;6157062;23;20510;-77
2022/11/30 01:11:20;;;;;;;2.72;2.53;;;;;;;2.04;100.00;100533.91;6108837;23;20004;-77
2022/11/30 01:13:46;;;;;;;2.13;2.03;;;;;;;2.01;100.00;100526.44;6183847;23;20008;-78
2022/11/30 01:16:20;;;;;;;1.92;1.83;;;;;;;1.98;100.00;100521.72;6158010;23;20040;-77
2022/11/30 01:18:46;;;;;;;1.67;1.58;;;;;;;2.00;100.00;100524.84;6183579;23;20029;-77
2022/11/30 01:21:13;;;;;;;3.63;3.00;;;;;;;1.99;100.00;100526.00;6184030;23;20036;-77
2022/11/30 01:23:39;;;;;;;5.30;4.55;;;;;;;1.95;100.00;100516.94;6157606;23;20013;-77
2022/11/30 01:26:05;;;;;;;5.05;4.57;;;;;;;1.96;100.00;100526.75;6157546;23;20001;-77
2022/11/30 01:28:31;;;;;;;4.70;3.58;;;;;;;1.99;100.00;100520.53;6184276;23;20024;-77
2022/11/30 01:31:04;;;;;;;2.13;2.03;;;;;;;2.00;100.00;100524.84;6183490;23;20004;-77
2022/11/30 01:33:30;;;;;;;4.30;3.58;;;;;;;1.98;100.00;100516.25;6157706;23;20013;-77
2022/11/30 01:36:13;;;;;;;3.75;2.75;;;;;;;1.96;100.00;100518.53;6157381;23;20031;-77
2022/11/30 01:38:47;;;;;;;2.92;2.72;;;;;;;1.92;100.00;100513.00;6157626;23;20037;-77
2022/11/30 01:41:16;;;;;;;3.10;1.25;;;;;;;1.85;100.00;100505.50;6157156;23;20063;-77
2022/11/30 01:43:49;;;;;;;2.70;2.03;;;;;;;1.92;100.00;100509.47;6184164;23;20013;-77
2022/11/30 01:46:23;;;;;;;3.35;2.70;;;;;;;1.84;100.00;100512.13;6184311;23;20067;-77
2022/11/30 01:48:54;;;;;;;4.57;3.83;;;;;;;1.86;100.00;100509.78;6183160;23;20020;-77
2022/11/30 01:51:20;;;;;;;3.50;2.88;;;;;;;1.86;100.00;100504.31;6183992;23;20084;-77
2022/11/30 01:53:45;;;;;;;3.13;2.90;;;;;;;1.81;100.00;100499.19;6183866;23;20037;-77
2022/11/30 01:56:11;;;;;;;4.93;3.78;;;;;;;1.84;100.00;100495.72;6183019;23;20021;-77
2022/11/30 01:58:36;;;;;;;1.65;1.55;;;;;;;1.84;100.00;100494.91;6183826;23;20339;-78
2022/11/30 02:01:02;;;;;;;6.70;4.18;;;;;;;1.81;100.00;100488.25;6184178;23;20009;-77
2022/11/30 02:03:47;;;;;;;5.18;4.57;;;;;;;1.79;100.00;100492.47;6184129;23;20400;-77
2022/11/30 02:06:13;;;;;;;1.73;1.63;;;;;;;1.75;100.00;100500.63;6133228;23;20013;-77
2022/11/30 02:08:38;;;;;;;3.42;3.10;;;;;;;1.77;100.00;100506.53;6157124;23;20076;-77
2022/11/30 02:11:07;;;;;;;2.60;2.50;;;;;;;1.77;100.00;100500.28;6184378;23;20005;-77
2022/11/30 02:13:37;;;;;;;2.30;2.10;;;;;;;1.76;100.00;100504.16;6157610;23;20100;-82
2022/11/30 02:16:24;;;;;;;3.10;2.90;;;;;;;1.78;100.00;100510.06;6184194;23;20021;-82
2022/11/30 02:18:56;;;;;;;2.22;2.13;;;;;;;1.79;100.00;100512.41;6183781;23;20021;-81
2022/11/30 02:21:33;;;;;;;4.93;2.83;;;;;;;1.81;100.00;100507.38;6184156;23;20009;-81
2022/11/30 02:24:05;;;;;;;4.13;3.83;;;;;;;1.74;100.00;100495.56;6184120;23;20013;-81
2022/11/30 02:27:19;;;;;;;2.63;2.42;;;;;;;1.79;100.00;100501.47;6184316;23;20017;-81
2022/11/30 02:30:22;;;;;;;2.33;1.42;;;;;;;1.78;100.00;100490.94;6158581;23;20021;-82
2022/11/30 02:32:53;;;;;;;3.70;2.08;;;;;;;1.81;100.00;100504.66;6183332;23;20024;-82
2022/11/30 02:35:21;;;;;;;3.50;3.08;;;;;;;1.87;100.00;100496.91;6183753;23;20020;-81
2022/11/30 02:37:48;;;;;;;2.30;2.20;;;;;;;1.86;100.00;100496.13;6157210;23;20013;-81
2022/11/30 02:40:16;;;;;;;1.88;1.77;;;;;;;1.90;100.00;100495.41;6156725;23;20009;-82
2022/11/30 02:42:42;;;;;;;5.72;2.88;;;;;;;1.88;100.00;100493.81;6183654;23;20012;-81
2022/11/30 02:45:08;;;;;;;6.28;2.95;;;;;;;1.87;100.00;100494.97;6183201;23;20347;-81
2022/11/30 02:47:38;;;;;;;3.40;3.13;;;;;;;1.91;100.00;100496.97;6133024;23;20013;-77
2022/11/30 02:50:11;;;;;;;4.88;4.30;;;;;;;1.88;100.00;100484.81;6183521;23;20335;-77
2022/11/30 02:52:36;;;;;;;2.65;2.47;;;;;;;1.88;100.00;100484.81;6157559;23;20029;-77
2022/11/30 02:55:08;;;;;;;6.45;4.10;;;;;;;1.83;100.00;100479.66;6156872;23;20454;-77
2022/11/30 02:57:34;;;;;;;2.00;1.90;;;;;;;1.81;100.00;100471.84;6183575;23;20013;-77
2022/11/30 03:00:05;;;;;;;3.15;2.92;;;;;;;1.78;100.00;100458.88;6183613;23;20327;-77
2022/11/30 03:02:31;;;;;;;1.83;1.73;;;;;;;1.81;100.00;100476.50;6183451;23;20083;-77
2022/11/30 03:04:57;;;;;;;6.43;3.83;;;;;;;1.79;100.00;100476.06;6182899;23;20444;-77
2022/11/30 03:07:22;;;;;;;4.05;3.58;;;;;;;1.81;100.00;100479.25;6156377;23;20025;-81
2022/11/30 03:09:47;;;;;;;3.75;3.45;;;;;;;1.79;100.00;100474.13;6183884;23;20044;-77
2022/11/30 03:12:13;;;;;;;6.13;4.15;;;;;;;1.82;100.00;100465.19;6183281;23;20440;-77
2022/11/30 03:14:38;;;;;;;3.60;3.33;;;;;;;1.83;100.00;100460.50;6156585;23;20060;-77
2022/11/30 03:17:05;;;;;;;3.78;3.40;;;;;;;1.87;100.00;100470.34;6183367;23;20009;-77
2022/11/30 03:19:32;;;;;;;4.03;2.45;;;;;;;1.86;100.00;100460.56;6183256;23;20005;-77
2022/11/30 03:21:57;;;;;;;4.55;4.22;;;;;;;1.90;100.00;100470.78;6183437;23;20020;-77
2022/11/30 03:24:25;;;;;;;2.58;2.40;;;;;;;1.88;100.00;100477.41;6156924;23;20013;-77
2022/11/30 03:26:51;;;;;;;3.78;3.22;;;;;;;1.93;100.00;100481.78;6183631;23;20024;-77
2022/11/30 03:29:16;;;;;;;2.05;1.95;;;;;;;1.94;100.00;100482.56;6156891;23;20005;-77
2022/11/30 03:31:42;;;;;;;5.35;3.10;;;;;;;1.95;100.00;100489.59;6183487;23;20013;-77
2022/11/30 03:34:07;;;;;;;4.53;3.75;;;;;;;1.95;100.00;100486.84;6182647;23;20014;-77
2022/11/30 03:36:33;;;;;;;3.08;2.83;;;;;;;1.91;100.00;100483.28;6156671;23;20196;-77
2022/11/30 03:38:58;;;;;;;3.95;3.65;;;;;;;1.92;100.00;100490.34;6183001;23;20009;-77
2022/11/30 03:41:24;;;;;;;2.55;2.42;;;;;;;1.87;100.00;100472.28;6183199;23;20009;-77
2022/11/30 03:43:49;;;;;;;6.38;2.05;;;;;;;1.96;100.00;100481.03;6156832;23;20035;-77
2022/11/30 03:46:15;;;;;;;3.53;3.22;;;;;;;1.94;100.00;100477.88;6183474;23;20013;-82
2022/11/30 03:48:42;;;;;;;1.55;1.17;;;;;;;1.88;100.00;100473.88;6183199;23;20013;-82
2022/11/30 03:51:09;;;;;;;4.03;3.70;;;;;;;1.95;100.00;100486.84;6183003;23;20017;-82
2022/11/30 03:53:35;;;;;;;1.95;1.85;;;;;;;1.98;100.00;100472.47;6182971;23;20502;-81
2022/11/30 03:56:03;;;;;;;3.70;3.40;;;;;;;1.98;100.00;100494.34;6156953;23;20044;-82
2022/11/30 03:58:29;;;;;;;3.05;2.70;;;;;;;1.93;100.00;100486.44;6156617;23;20047;-82
2022/11/30 04:01:13;;;;;;;5.63;2.92;;;;;;;1.97;100.00;100495.50;6182816;23;20387;-82
2022/11/30 04:03:39;;;;;;;2.78;2.55;;;;;;;1.95;100.00;100479.44;6156050;23;20013;-81
2022/11/30 04:06:05;;;;;;;4.65;3.33;;;;;;;1.94;100.00;100499.78;6156349;23;20067;-77
2022/11/30 04:08:31;;;;;;;3.50;2.65;;;;;;;1.93;100.00;100498.19;6155558;23;20013;-82
2022/11/30 04:10:58;;;;;;;1.08;1.08;;;;;;;1.90;100.00;100489.94;6182519;23;20020;-82
2022/11/30 04:13:25;;;;;;;4.30;3.95;;;;;;;1.91;100.00;100486.81;6182645;23;20355;-82
2022/11/30 04:15:52;;;;;;;9.80;3.05;;;;;;;1.92;100.00;100496.59;6182030;23;20013;-82
2022/11/30 04:18:18;;;;;;;1.40;1.30;;;;;;;1.93;100.00;100483.72;6181977;23;20061;-81
2022/11/30 04:20:45;;;;;;;3.38;3.08;;;;;;;1.93;100.00;100497.41;6156800;23;20043;-82
2022/11/30 04:23:11;;;;;;;3.40;3.20;;;;;;;1.93;100.00;100491.94;6156361;23;20009;-77
2022/11/30 04:25:38;;;;;;;5.10;4.70;;;;;;;1.96;100.00;100486.50;6132039;23;20017;-77
2022/11/30 04:28:03;;;;;;;2.10;1.48;;;;;;;1.98;100.00;100483.41;6182265;23;20013;-77
2022/11/30 04:30:29;;;;;;;2.30;2.20;;;;;;;1.98;100.00;100486.16;6181411;23;20013;-77
2022/11/30 04:32:54;;;;;;;6.13;2.65;;;;;;;2.05;100.00;100483.50;6182719;23;20019;-77
2022/11/30 04:35:20;;;;;;;4.20;3.90;;;;;;;1.97;100.00;100479.88;6182866;23;20486;-77
2022/11/30 04:37:45;;;;;;;2.97;2.78;;;;;;;1.99;100.00;100491.22;6182111;23;20047;-77
2022/11/30 04:40:11;;;;;;;1.60;1.50;;;;;;;1.97;100.00;100493.56;6182821;23;20012;-77
2022/11/30 04:42:37;;;;;;;3.22;3.03;;;;;;;1.92;100.00;100495.81;6182886;23;20017;-78
2022/11/30 04:45:03;;;;;;;0.77;0.65;;;;;;;1.92;100.00;100501.28;6182095;23;20350;-81
2022/11/30 04:47:28;;;;;;;4.22;3.85;;;;;;;1.95;100.00;100500.53;6155414;23;20009;-81
2022/11/30 04:49:54;;;;;;;5.57;2.67;;;;;;;1.94;100.00;100505.25;6182672;23;20084;-81
2022/11/30 04:52:19;;;;;;;1.15;1.13;;;;;;;1.93;100.00;100502.88;6182554;23;20446;-81
2022/11/30 04:54:44;;;;;;;3.20;2.45;;;;;;;1.92;100.00;100506.75;6182983;23;20016;-81
2022/11/30 04:57:10;;;;;;;2.03;1.83;;;;;;;1.93;100.00;100503.66;6182305;23;20005;-81
2022/11/30 04:59:36;;;;;;;3.53;3.33;;;;;;;1.99;100.00;100488.50;6182975;23;20044;-81
2022/11/30 05:02:01;;;;;;;4.07;2.47;;;;;;;2.02;100.00;100506.13;6182868;23;20024;-77
2022/11/30 05:04:26;;;;;;;5.13;3.72;;;;;;;1.95;100.00;100508.75;6181441;23;20463;-81
2022/11/30 05:06:52;;;;;;;5.43;3.42;;;;;;;1.96;100.00;100507.59;6183128;23;20017;-80
2022/11/30 05:09:17;;;;;;;2.20;2.10;;;;;;;1.96;100.00;100513.06;6182429;23;20009;-80
2022/11/30 05:11:43;;;;;;;1.40;1.40;;;;;;;1.99;100.00;100507.66;6182282;23;20012;-80
2022/11/30 05:14:08;;;;;;;7.13;4.10;;;;;;;2.03;100.00;100502.22;6182814;23;20001;-80
2022/11/30 05:16:34;;;;;;;3.67;3.38;;;;;;;2.00;100.00;100498.28;6181469;23;20028;-81
2022/11/30 05:18:59;;;;;;;4.63;4.10;;;;;;;2.02;100.00;100512.41;6182547;23;20048;-81
2022/11/30 05:21:25;;;;;;;5.03;4.05;;;;;;;2.05;100.00;100510.88;6156155;23;20394;-81
2022/11/30 05:23:51;;;;;;;1.58;1.25;;;;;;;2.02;100.00;100517.09;6182447;23;20401;-80
2022/11/30 05:26:16;;;;;;;2.05;1.85;;;;;;;2.00;100.00;100506.50;6182031;23;20009;-80
2022/11/30 05:28:42;;;;;;;6.07;2.88;;;;;;;1.99;100.00;100517.78;6182567;23;20013;-80
2022/11/30 05:31:07;;;;;;;7.10;2.45;;;;;;;1.96;100.00;100522.06;6184113;23;20439;-80
2022/11/30 05:33:33;;;;;;;5.93;3.60;;;;;;;1.92;100.00;100509.47;6183971;23;20560;-79
2022/11/30 05:35:58;;;;;;;2.65;2.10;;;;;;;1.93;100.00;100519.28;6183441;23;20019;-80
2022/11/30 05:38:24;;;;;;;4.72;3.67;;;;;;;1.88;100.00;100512.97;6183009;23;20387;-80
2022/11/30 05:40:49;;;;;;;4.38;2.53;;;;;;;1.97;100.00;100520.13;6182068;23;20017;-76
2022/11/30 05:43:15;;;;;;;8.30;5.45;;;;;;;1.97;100.00;100512.72;6153568;23;20447;-80
2022/11/30 05:45:40;;;;;;;3.63;1.80;;;;;;;1.99;100.00;100512.31;6182182;23;20052;-80
2022/11/30 05:48:06;;;;;;;5.68;2.03;;;;;;;1.99;100.00;100513.13;6181015;23;20009;-80
2022/11/30 05:50:31;;;;;;;3.50;3.17;;;;;;;2.01;100.00;100516.28;6180647;23;20009;-80
2022/11/30 05:52:59;;;;;;;1.38;1.30;;;;;;;1.96;100.00;100507.59;6152053;23;20087;-80
2022/11/30 05:55:25;;;;;;;4.50;4.15;;;;;;;1.98;100.00;100516.25;6178732;23;20040;-80
2022/11/30 05:57:51;;;;;;;3.47;3.20;;;;;;;1.99;100.00;100526.00;6154947;23;20031;-80
2022/11/30 06:00:17;;;;;;;3.60;2.95;;;;;;;1.99;100.00;100523.28;6180082;23;20012;-80
2022/11/30 06:02:42;;;;;;;3.42;2.65;;;;;;;1.96;100.00;100519.34;6179191;23;20412;-76
2022/11/30 06:05:08;;;;;;;5.90;4.78;;;;;;;1.97;100.00;100518.19;6177486;23;20013;-76
2022/11/30 06:07:33;;;;;;;1.88;1.70;;;;;;;1.99;100.00;100517.78;6151832;23;20013;-76
2022/11/30 06:09:59;;;;;;;5.13;2.67;;;;;;;1.95;100.00;100519.69;6178473;23;20462;-76
2022/11/30 06:12:24;;;;;;;14.10;3.30;;;;;;;1.97;100.00;100526.38;6180045;23;20051;-76
2022/11/30 06:14:50;;;;;;;2.15;2.03;;;;;;;1.94;100.00;100520.88;6154587;23;20390;-76
2022/11/30 06:17:16;;;;;;;2.55;2.42;;;;;;;1.93;100.00;100524.75;6180234;23;20045;-77
2022/11/30 06:19:41;;;;;;;3.35;3.05;;;;;;;1.92;100.00;100520.44;6182767;23;20016;-81
2022/11/30 06:22:07;;;;;;;3.03;2.65;;;;;;;1.92;100.00;100523.16;6184109;23;20325;-82
2022/11/30 06:24:32;;;;;;;4.43;4.13;;;;;;;1.95;100.00;100534.16;6156682;23;20083;-81
2022/11/30 06:26:58;;;;;;;9.73;5.45;;;;;;;1.96;100.00;100527.53;6183973;23;20071;-81
2022/11/30 06:29:23;;;;;;;3.47;3.17;;;;;;;2.02;100.00;100536.25;6183696;23;20419;-82
2022/11/30 06:31:49;;;;;;;3.42;1.25;;;;;;;2.06;100.00;100534.34;6184292;23;20455;-82
2022/11/30 06:34:15;;;;;;;4.13;2.42;;;;;;;2.08;100.00;100543.75;6182796;23;20012;-81
2022/11/30 06:36:40;;;;;;;3.10;2.92;;;;;;;2.09;100.00;100539.06;6181412;23;20001;-81
2022/11/30 06:39:07;;;;;;;3.50;3.28;;;;;;;2.12;100.00;100543.81;6182823;23;20021;-81
2022/11/30 06:41:33;;;;;;;4.18;3.28;;;;;;;2.10;100.00;100540.66;6183388;23;20067;-81
2022/11/30 06:43:59;;;;;;;4.63;3.70;;;;;;;2.13;100.00;100546.19;6183351;23;20009;-81
2022/11/30 06:46:25;;;;;;;2.58;1.92;;;;;;;2.10;100.00;100546.94;6183547;23;20013;-81
2022/11/30 06:48:51;;;;;;;4.85;3.35;;;;;;;2.13;100.00;100550.88;6183693;23;20009;-81
2022/11/30 06:51:17;;;;;;;2.00;1.90;;;;;;;2.05;100.00;100544.50;6183364;23;20440;-81
2022/11/30 06:53:45;;;;;;;2.63;2.42;;;;;;;2.12;100.00;100557.50;6183989;23;20020;-81
2022/11/30 06:56:11;;;;;;;2.75;2.55;;;;;;;2.10;100.00;100557.88;6183215;23;20013;-82
2022/11/30 06:58:38;;;;;;;4.40;3.90;;;;;;;2.00;100.00;100538.53;6183867;23;20063;-81
2022/11/30 07:01:05;;;;;;;1.02;1.02;;;;;;;2.08;100.00;100560.19;6157831;23;20020;-81
2022/11/30 07:03:30;;;;;;;9.40;1.27;;;;;;;2.03;100.00;100548.75;6183289;23;20063;-81
2022/11/30 07:05:56;;;;;;;3.20;2.95;;;;;;;2.04;100.00;100544.84;6184051;23;20040;-81
2022/11/30 07:08:21;;;;;;;2.92;2.72;;;;;;;2.04;100.00;100558.53;6183576;23;20013;-81
2022/11/30 07:10:47;;;;;;;1.75;1.65;;;;;;;2.03;100.00;100556.94;6184099;23;20507;-81
2022/11/30 07:13:14;;;;;;;1.88;1.67;;;;;;;2.01;100.00;100562.00;6183647;23;20075;-81
2022/11/30 07:15:40;;;;;;;5.25;3.53;;;;;;;2.04;100.00;100558.53;6183904;23;20005;-81
2022/11/30 07:18:06;;;;;;;6.10;3.10;;;;;;;2.04;100.00;100558.53;6183951;23;20033;-81
2022/11/30 07:20:32;;;;;;;2.85;1.77;;;;;;;2.05;100.00;100566.38;6183556;23;20423;-80
2022/11/30 07:26:05;;;;;;;3.42;2.13;;;;;;;2.05;100.00;100554.66;6157530;23;20082;-81
2022/11/30 07:28:27;;;;;;;;;;;;;;;2.12;100.00;100552.03;6183899;23;20439;-81
2022/11/30 07:30:52;;;;;;;1.10;1.10;;;;;;;2.15;100.00;100554.00;6183712;23;19935;-81
2022/11/30 07:33:18;;;;;;;5.63;5.07;;;;;;;2.16;100.00;100552.84;6182827;23;20087;-81
2022/11/30 07:35:46;;;;;;;3.88;3.35;;;;;;;2.18;100.00;100570.50;6157876;23;20099;-76
2022/11/30 07:38:11;;;;;;;2.85;2.55;;;;;;;2.18;100.00;100554.09;6156903;23;20428;-81
2022/11/30 07:40:37;;;;;;;3.83;3.53;;;;;;;2.19;100.00;100563.06;6182929;23;20095;-79
2022/11/30 07:43:02;;;;;;;2.00;1.90;;;;;;;2.24;100.00;100563.56;6183509;23;20017;-81
2022/11/30 07:45:28;;;;;;;4.30;3.42;;;;;;;2.21;100.00;100564.28;6182931;23;20008;-81
2022/11/30 07:47:53;;;;;;;2.60;2.35;;;;;;;2.18;100.00;100556.03;6183279;23;20008;-81
2022/11/30 07:50:19;;;;;;;2.90;2.78;;;;;;;2.24;100.00;100568.22;6183091;23;20056;-81
2022/11/30 07:52:44;;;;;;;3.92;3.63;;;;;;;2.27;100.00;100570.22;6183162;23;20059;-77
2022/11/30 07:55:10;;;;;;;1.30;1.27;;;;;;;2.26;100.00;100552.25;6183441;23;20394;-75
2022/11/30 07:57:35;;;;;;;3.35;3.08;;;;;;;2.28;100.00;100558.13;6183278;23;20020;-75
2022/11/30 08:00:01;;;;;;;2.97;2.42;;;;;;;2.30;100.00;100562.09;6183742;23;20017;-75
2022/11/30 08:02:26;;;;;;;2.72;2.45;;;;;;;2.32;100.00;100548.03;6182383;23;20013;-75
2022/11/30 08:04:54;;;;;;;3.80;3.50;;;;;;;2.33;100.00;100550.41;6155872;23;20036;-75
2022/11/30 08:07:19;;;;;;;3.08;2.85;;;;;;;2.41;100.00;100550.50;6182963;23;20067;-75
2022/11/30 08:09:45;;;;;;;6.03;4.63;;;;;;;2.51;100.00;100558.84;6182957;23;20009;-75
2022/11/30 08:12:10;;;;;;;3.33;3.13;;;;;;;2.53;100.00;100564.75;6183333;23;20041;-76
2022/11/30 08:14:36;;;;;;;5.05;2.53;;;;;;;2.54;100.00;100560.88;6182880;23;20017;-81
2022/11/30 08:17:02;;;;;;;2.28;2.17;;;;;;;2.61;100.00;100560.16;6183189;23;20016;-81
2022/11/30 08:19:27;;;;;;;2.80;2.58;;;;;;;2.59;100.00;100560.53;6183076;23;20140;-81
2022/11/30 08:21:53;;;;;;;2.47;2.15;;;;;;;2.64;100.00;100571.16;6182965;23;20005;-81
2022/11/30 08:24:18;;;;;;;3.92;1.83;;;;;;;2.68;100.00;100565.75;6183246;23;20036;-80
2022/11/30 08:26:44;;;;;;;14.15;3.03;;;;;;;2.74;100.00;100561.53;6182895;23;20009;-81
2022/11/30 08:29:10;;;;;;;1.52;1.20;;;;;;;2.79;100.00;100561.97;6155889;23;20009;-80
2022/11/30 08:31:36;;;;;;;2.03;1.55;;;;;;;2.89;100.00;100548.78;6183301;23;20084;-75
2022/11/30 08:34:07;;;;;;;4.50;2.80;;;;;;;2.93;100.00;100561.38;6183376;23;20045;-75
2022/11/30 08:36:33;;;;;;;2.47;1.88;;;;;;;3.03;100.00;100573.66;6182622;23;20020;-75
2022/11/30 08:38:59;;;;;;;1.55;1.42;;;;;;;3.04;100.00;100562.28;6182899;23;20043;-75
2022/11/30 08:41:25;;;;;;;5.68;4.68;;;;;;;3.19;100.00;100563.25;6156911;23;20005;-76
2022/11/30 08:43:51;;;;;;;3.35;3.05;;;;;;;3.20;100.00;100565.59;6156693;23;20013;-75
2022/11/30 08:46:18;;;;;;;2.33;2.20;;;;;;;3.22;100.00;100557.03;6156747;23;20152;-75
2022/11/30 08:48:44;;;;;;;5.20;2.85;;;;;;;3.19;100.00;100564.06;6183067;23;20001;-75
2022/11/30 08:51:12;;;;;;;5.78;4.78;;;;;;;3.23;100.00;100564.09;6183348;23;20021;-76
2022/11/30 08:53:37;;;;;;;2.05;1.95;;;;;;;3.26;100.00;100557.84;6182864;23;20489;-75
2022/11/30 08:56:06;;;;;;;3.97;3.67;;;;;;;3.19;100.00;100557.78;6156886;23;20088;-76
2022/11/30 08:58:33;;;;;;;14.32;4.05;;;;;;;3.08;100.00;100556.84;6156259;23;20402;-74
2022/11/30 09:01:09;;;;;;;3.70;1.85;;;;;;;3.09;100.00;100559.22;6156845;23;20005;-75
2022/11/30 09:03:35;;;;;;;7.63;2.67;;;;;;;3.11;100.00;100561.59;6182711;23;20067;-76
2022/11/30 09:06:05;;;;;;;2.78;2.58;;;;;;;3.03;100.00;100568.16;6185071;23;20017;-75
2022/11/30 09:08:31;;;;;;;4.03;3.67;;;;;;;3.02;100.00;100566.56;6184434;23;20013;-76
2022/11/30 09:10:56;;;;;;;4.80;3.45;;;;;;;3.01;100.00;100570.47;6185263;23;20013;-81
2022/11/30 09:13:22;;;;;;;4.75;3.85;;;;;;;3.01;100.00;100575.94;6184853;23;20355;-75
2022/11/30 09:15:54;;;;;;;3.97;3.67;;;;;;;3.07;100.00;100575.28;6184830;23;20012;-75
2022/11/30 09:18:20;;;;;;;3.45;3.00;;;;;;;3.16;100.00;100574.94;6133801;23;20016;-75
2022/11/30 09:20:45;;;;;;;3.40;3.17;;;;;;;3.22;100.00;100573.47;6185201;23;20009;-77
2022/11/30 09:23:11;;;;;;;1.50;1.42;;;;;;;3.25;100.00;100568.03;6184884;23;20013;-75
2022/11/30 09:25:37;;;;;;;2.17;2.08;;;;;;;3.30;100.00;100564.16;6184746;23;20013;-76
2022/11/30 09:28:02;;;;;;;2.42;2.22;;;;;;;3.29;100.00;100562.56;6184329;23;20013;-75
2022/11/30 09:30:27;;;;;;;7.47;3.50;;;;;;;3.34;100.00;100558.72;6158066;23;20040;-81
2022/11/30 09:32:53;;;;;;;5.20;3.38;;;;;;;3.38;100.00;100554.84;6184879;23;20105;-81
2022/11/30 09:35:19;;;;;;;5.47;3.60;;;;;;;3.37;100.00;100550.53;6184632;23;20029;-81
2022/11/30 09:37:44;;;;;;;2.15;2.05;;;;;;;3.42;100.00;100549.41;6183864;23;20047;-81
2022/11/30 09:40:12;;;;;;;2.08;1.60;;;;;;;3.40;100.00;100552.50;6184077;23;20016;-79
2022/11/30 09:42:48;;;;;;;1.63;1.55;;;;;;;3.35;100.00;100533.66;6158389;23;20005;-81
2022/11/30 09:45:18;;;;;;;5.18;3.97;;;;;;;3.37;100.00;100536.81;6158397;23;20013;-80
2022/11/30 09:47:58;;;;;;;5.07;3.47;;;;;;;3.40;100.00;100541.53;6157675;23;20016;-76
2022/11/30 09:50:25;;;;;;;4.25;3.90;;;;;;;3.39;100.00;100544.66;6158094;23;20009;-81
2022/11/30 09:52:54;;;;;;;5.88;2.58;;;;;;;3.42;100.00;100550.19;6133879;23;20012;-81
2022/11/30 09:55:29;;;;;;;2.65;2.45;;;;;;;3.43;100.00;100551.78;6157888;23;20008;-80
2022/11/30 09:58:01;;;;;;;2.47;2.20;;;;;;;3.47;100.00;100552.59;6158130;23;20089;-82
2022/11/30 10:00:26;;;;;;;2.70;1.90;;;;;;;3.51;100.00;100553.41;6184376;23;20042;-81
2022/11/30 10:02:55;;;;;;;9.52;2.88;;;;;;;3.55;100.00;100540.53;6184619;23;20084;-81
2022/11/30 10:05:48;;;;;;;1.27;1.27;;;;;;;3.56;100.00;100547.56;6157790;23;20013;-80
2022/11/30 10:08:36;;;;;;;3.65;2.38;;;;;;;3.58;100.00;100548.00;6184117;23;20017;-81
2022/11/30 10:11:22;;;;;;;4.72;4.43;;;;;;;3.56;100.00;100538.59;6158331;23;20023;-82
2022/11/30 10:14:14;;;;;;;3.10;2.90;;;;;;;3.55;100.00;100526.81;6157470;23;20013;-84
2022/11/30 10:17:07;;;;;;;2.30;2.10;;;;;;;3.59;100.00;100532.34;6157455;23;20096;-81
2022/11/30 10:20:14;;;;;;;2.75;2.55;;;;;;;3.59;100.00;100538.63;6183955;23;20028;-82
2022/11/30 10:22:59;;;;;;;3.88;2.60;;;;;;;3.60;100.00;100531.94;6125826;23;20017;-82
2022/11/30 10:25:29;;;;;;;5.68;4.43;;;;;;;3.66;100.00;100533.19;6183414;23;20013;-82
2022/11/30 10:28:01;;;;;;;8.50;5.28;;;;;;;3.62;100.00;100526.88;6184411;23;20024;-75
2022/11/30 10:30:32;;;;;;;2.45;2.35;;;;;;;3.61;100.00;100529.97;6157139;23;20013;-74
2022/11/30 10:33:04;;;;;;;5.68;4.72;;;;;;;3.61;100.00;100525.28;6184381;23;20020;-75
2022/11/30 10:35:55;;;;;;;3.13;2.92;;;;;;;3.64;100.00;100519.03;6157531;23;20024;-75
2022/11/30 10:38:27;;;;;;;13.38;2.95;;;;;;;3.66;100.00;100524.94;6157554;23;20414;-74
2022/11/30 10:40:54;;;;;;;5.07;4.78;;;;;;;3.74;100.00;100523.84;6157545;23;20016;-74
2022/11/30 10:43:29;;;;;;;5.68;1.95;;;;;;;3.78;100.00;100512.09;6183724;23;20036;-75
2022/11/30 10:45:55;;;;;;;3.63;3.33;;;;;;;3.81;100.00;100519.56;6158040;23;20013;-84
2022/11/30 10:48:31;;;;;;;4.65;3.67;;;;;;;3.87;100.00;100513.38;6184038;23;20067;-82
2022/11/30 10:50:58;;;;;;;2.47;2.28;;;;;;;3.92;100.00;100512.22;6157729;23;20513;-83
2022/11/30 10:53:23;;;;;;;3.75;3.53;;;;;;;3.95;100.00;100504.03;6157487;23;20009;-83
2022/11/30 10:56:18;;;;;;;2.83;2.63;;;;;;;4.05;100.00;100505.25;6157321;23;20012;-82
2022/11/30 10:58:54;;;;;;;1.83;1.67;;;;;;;4.06;100.00;100495.84;6157979;23;20040;-83
2022/11/30 11:01:39;;;;;;;3.92;3.60;;;;;;;4.11;100.00;100498.25;6183509;23;20005;-82
2022/11/30 11:04:11;;;;;;;2.20;2.10;;;;;;;4.15;100.00;100496.31;6183779;23;20035;-82
2022/11/30 11:06:46;;;;;;;4.85;3.88;;;;;;;4.11;100.00;100501.00;6183662;23;20460;-84
2022/11/30 11:09:31;;;;;;;1.95;1.85;;;;;;;4.16;100.00;100506.94;6183677;23;20091;-82
2022/11/30 11:12:04;;;;;;;1.85;1.73;;;;;;;4.11;100.00;100499.03;6183900;23;20328;-82
2022/11/30 11:14:30;;;;;;;4.25;3.80;;;;;;;4.15;100.00;100508.09;6182928;23;20065;-82
2022/11/30 11:17:01;;;;;;;2.10;2.00;;;;;;;4.11;100.00;100503.75;6159056;23;20005;-82
2022/11/30 11:19:33;;;;;;;3.30;3.03;;;;;;;4.18;100.00;100498.28;6186983;23;20085;-82
2022/11/30 11:22:05;;;;;;;2.35;2.22;;;;;;;4.16;100.00;100495.16;6189008;23;20386;-81
2022/11/30 11:24:30;;;;;;;3.53;3.15;;;;;;;4.07;100.00;100491.94;6183092;23;20016;-83
2022/11/30 11:26:56;;;;;;;1.77;1.67;;;;;;;3.98;100.00;100488.75;6183101;23;20021;-75
2022/11/30 11:29:30;;;;;;;3.97;3.72;;;;;;;3.90;100.00;100489.84;6131954;23;20013;-75
2022/11/30 11:32:04;;;;;;;;;;;;;;;3.88;100.00;100494.94;6159338;23;20021;-75
2022/11/30 11:34:32;;;;;;;4.72;3.65;;;;;;;3.81;100.00;100494.88;6157084;23;19938;-75